Time;durP1;ratioP1;P1;durP2;ratioP2;P2;SDS_P1;SDS_P2;PMS_P1;PMS_P2;Temp;Humidity;BMP_temperature;BMP_pressure;BME280_temperature;BME280_humidity;BME280_pressure;Samples;Min_cycle;Max_cycle;Signal;HPM_P1;HPM_P2
2023/05/24 00:01:01;;;;;;;7.82;5.45;;;;;;;23.52;59.34;100724.47;5093324;28;20480;-59
2023/05/24 00:03:33;;;;;;;7.65;6.15;;;;;;;23.52;59.63;100730.72;5093213;28;20052;-59
2023/05/24 00:06:01;;;;;;;9.27;6.90;;;;;;;23.53;59.64;100726.16;5093216;28;20380;-59
2023/05/24 00:08:28;;;;;;;7.68;6.57;;;;;;;23.52;59.28;100725.31;5091773;28;20059;-59
2023/05/24 00:10:56;;;;;;;5.90;5.30;;;;;;;23.51;59.70;100736.31;5093126;28;20048;-59
2023/05/24 00:13:23;;;;;;;7.15;5.57;;;;;;;23.52;59.51;100735.28;5095876;28;20055;-59
2023/05/24 00:15:51;;;;;;;8.52;6.22;;;;;;;23.52;59.27;100732.59;5096969;28;20047;-59
2023/05/24 00:18:18;;;;;;;7.20;6.15;;;;;;;23.52;59.59;100738.00;5097104;28;20051;-59
2023/05/24 00:20:46;;;;;;;6.65;5.95;;;;;;;23.51;59.59;100731.75;5096972;28;20506;-53
2023/05/24 00:23:14;;;;;;;7.18;6.00;;;;;;;23.51;59.47;100734.44;5096778;28;20044;-59
2023/05/24 00:25:41;;;;;;;8.45;6.43;;;;;;;23.50;59.62;100735.47;5096750;28;20055;-58
2023/05/24 00:28:09;;;;;;;7.40;6.28;;;;;;;23.51;59.32;100742.56;5096685;28;20048;-58
2023/05/24 00:30:36;;;;;;;6.80;5.70;;;;;;;23.51;59.69;100741.72;5096742;28;20381;-58
2023/05/24 00:33:03;;;;;;;6.43;5.45;;;;;;;23.51;59.20;100739.84;5095334;28;20048;-58
2023/05/24 00:35:31;;;;;;;5.93;5.03;;;;;;;23.51;59.39;100733.59;5094747;28;20052;-58
2023/05/24 00:37:58;;;;;;;7.45;6.07;;;;;;;23.51;59.35;100741.72;5096160;28;20055;-58
2023/05/24 00:40:26;;;;;;;6.88;5.95;;;;;;;23.50;59.55;100737.28;5096050;28;20040;-50
2023/05/24 00:42:53;;;;;;;8.73;5.60;;;;;;;23.50;59.44;100746.28;5095142;28;20052;-51
2023/05/24 00:45:20;;;;;;;6.88;5.70;;;;;;;23.50;59.29;100740.00;5096755;28;20521;-53
2023/05/24 00:47:48;;;;;;;7.38;5.85;;;;;;;23.50;59.26;100740.00;5095295;28;20396;-53
2023/05/24 00:50:16;;;;;;;6.57;5.43;;;;;;;23.49;59.47;100733.75;5095199;28;20055;-58
2023/05/24 00:52:46;;;;;;;8.38;6.40;;;;;;;23.50;59.20;100737.28;5096184;28;20044;-58
2023/05/24 00:55:13;;;;;;;7.97;6.25;;;;;;;23.49;59.18;100738.31;5095032;28;20047;-58
2023/05/24 00:57:41;;;;;;;8.05;5.90;;;;;;;23.50;59.49;100735.47;5096293;28;20496;-58
2023/05/24 01:00:10;;;;;;;6.63;5.93;;;;;;;23.50;59.62;100740.00;5096086;28;20062;-58
2023/05/24 01:02:37;;;;;;;6.65;5.95;;;;;;;23.49;59.22;100731.03;5095856;28;20051;-58
2023/05/24 01:05:05;;;;;;;8.77;5.45;;;;;;;23.50;59.29;100729.19;5095851;28;20055;-58
2023/05/24 01:07:42;;;;;;;8.10;5.97;;;;;;;23.49;59.53;100725.63;5094722;28;20048;-57
2023/05/24 01:10:30;;;;;;;6.18;5.15;;;;;;;23.49;59.47;100724.78;5094623;28;20044;-57
2023/05/24 01:13:22;;;;;;;6.57;5.90;;;;;;;23.49;59.46;100725.63;5095785;28;20048;-58
2023/05/24 01:15:58;;;;;;;6.10;5.50;;;;;;;23.49;59.27;100724.78;5095900;28;20372;-58
2023/05/24 01:18:33;;;;;;;6.95;5.88;;;;;;;23.50;59.55;100726.47;5094761;28;20056;-58
2023/05/24 01:21:15;;;;;;;6.72;5.40;;;;;;;23.49;59.43;100724.78;5095813;28;20522;-58
2023/05/24 01:24:00;;;;;;;5.90;5.03;;;;;;;23.49;59.42;100727.50;5095464;28;20055;-58
2023/05/24 01:26:36;;;;;;;6.88;5.28;;;;;;;23.48;59.49;100728.50;5095441;28;20650;-57
2023/05/24 01:29:04;;;;;;;6.22;5.22;;;;;;;23.48;59.65;100737.47;5095284;28;20054;-58
2023/05/24 01:31:33;;;;;;;6.10;5.50;;;;;;;23.49;59.55;100732.91;5095418;28;20043;-58
2023/05/24 01:34:00;;;;;;;7.35;6.10;;;;;;;23.48;59.70;100740.16;5095461;28;20052;-57
2023/05/24 01:36:27;;;;;;;6.72;6.03;;;;;;;23.48;59.48;100739.31;5095237;28;20059;-57
2023/05/24 01:38:55;;;;;;;6.20;5.60;;;;;;;23.48;59.59;100737.47;5094040;28;20070;-58
2023/05/24 01:42:08;;;;;;;6.50;5.05;;;;;;;23.47;59.47;100743.88;5095343;28;20044;-58
2023/05/24 01:44:45;;;;;;;6.15;5.55;;;;;;;23.48;59.28;100740.16;5093651;28;20056;-58
2023/05/24 01:47:35;;;;;;;6.35;5.57;;;;;;;23.48;59.38;100740.16;5094149;28;20055;-57
2023/05/24 01:50:17;;;;;;;6.65;5.38;;;;;;;23.47;59.37;100738.47;5093862;28;20047;-57
2023/05/24 01:52:45;;;;;;;6.70;5.90;;;;;;;23.47;59.76;100735.78;5077447;28;20055;-58
2023/05/24 01:55:16;;;;;;;5.82;5.18;;;;;;;23.46;59.18;100747.59;5094884;28;20048;-58
2023/05/24 01:57:47;;;;;;;6.30;5.60;;;;;;;23.47;59.29;100749.28;5093890;28;20052;-58
2023/05/24 02:00:18;;;;;;;5.80;5.20;;;;;;;23.47;59.57;100748.44;5093520;28;20055;-57
2023/05/24 02:02:45;;;;;;;6.65;5.18;;;;;;;23.47;59.54;100746.59;5094871;28;20480;-58
2023/05/24 02:05:13;;;;;;;7.30;5.70;;;;;;;23.47;59.51;100734.94;5094720;28;20048;-58
2023/05/24 02:07:40;;;;;;;7.15;5.78;;;;;;;23.47;59.28;100735.78;5094734;28;20044;-58
2023/05/24 02:10:08;;;;;;;6.28;5.57;;;;;;;23.47;59.20;100727.66;5093820;28;20052;-52
2023/05/24 02:12:35;;;;;;;6.85;5.65;;;;;;;23.46;59.36;100731.38;5094696;28;20388;-51
2023/05/24 02:15:03;;;;;;;6.22;5.25;;;;;;;23.47;59.33;100730.38;5094733;28;20051;-51
2023/05/24 02:17:31;;;;;;;9.07;5.63;;;;;;;23.46;59.45;100731.38;5093609;28;20052;-49
2023/05/24 02:19:59;;;;;;;6.32;5.70;;;;;;;23.47;59.36;100735.78;5093529;28;20051;-58
2023/05/24 02:22:27;;;;;;;7.10;5.53;;;;;;;23.46;59.30;100731.38;5094426;28;20040;-58
2023/05/24 02:24:54;;;;;;;6.03;5.13;;;;;;;23.47;59.29;100729.53;5094744;28;20055;-58
2023/05/24 02:27:22;;;;;;;6.05;5.45;;;;;;;23.47;59.47;100727.66;5094843;28;20059;-58
2023/05/24 02:29:50;;;;;;;8.00;6.38;;;;;;;23.47;59.60;100735.78;5094279;28;20500;-57
2023/05/24 02:32:17;;;;;;;8.77;5.38;;;;;;;23.46;59.48;100731.38;5093496;28;20059;-58
2023/05/24 02:34:45;;;;;;;6.15;5.38;;;;;;;23.45;59.37;100733.22;5093791;28;20048;-58
2023/05/24 02:37:13;;;;;;;5.82;5.22;;;;;;;23.45;59.66;100727.81;5093221;28;20499;-58
2023/05/24 02:39:41;;;;;;;6.07;5.47;;;;;;;23.45;59.29;100727.81;5093364;28;20145;-58
2023/05/24 02:42:10;;;;;;;6.55;5.88;;;;;;;23.45;59.26;100727.81;5094346;28;20050;-58
2023/05/24 02:44:37;;;;;;;6.60;5.93;;;;;;;23.46;59.49;100728.69;5093059;28;20058;-58
2023/05/24 02:47:05;;;;;;;7.78;6.35;;;;;;;23.44;59.25;100730.69;5092893;28;20055;-58
2023/05/24 02:49:32;;;;;;;6.68;5.10;;;;;;;23.44;59.36;100739.63;5093667;28;20048;-58
2023/05/24 02:52:00;;;;;;;6.93;5.57;;;;;;;23.45;59.48;100735.06;5093744;28;20052;-58
2023/05/24 02:54:27;;;;;;;6.13;5.53;;;;;;;23.45;59.58;100737.78;5093728;28;20052;-58
2023/05/24 02:56:56;;;;;;;8.68;5.85;;;;;;;23.45;59.27;100735.91;5092899;28;20047;-58
2023/05/24 02:59:24;;;;;;;6.13;5.53;;;;;;;23.45;59.23;100729.66;5093111;28;20052;-58
2023/05/24 03:01:52;;;;;;;6.97;5.35;;;;;;;23.44;59.47;100736.94;5092614;28;20044;-50
2023/05/24 03:04:19;;;;;;;5.60;5.03;;;;;;;23.44;59.56;100734.22;5093405;28;20047;-51
2023/05/24 03:06:47;;;;;;;6.15;5.55;;;;;;;23.43;59.62;100732.53;5093674;28;20040;-50
2023/05/24 03:09:16;;;;;;;9.10;6.10;;;;;;;23.43;59.51;100732.53;5092682;28;20058;-51
2023/05/24 03:11:44;;;;;;;6.53;5.50;;;;;;;23.44;59.67;100738.78;5092765;28;20051;-49
2023/05/24 03:14:11;;;;;;;6.32;5.55;;;;;;;23.44;59.43;100736.09;5093723;28;20040;-48
2023/05/24 03:16:41;;;;;;;7.40;5.78;;;;;;;23.44;59.49;100734.22;5092544;28;20048;-48
2023/05/24 03:19:09;;;;;;;7.85;5.45;;;;;;;23.45;59.81;100729.66;5092535;28;20052;-52
2023/05/24 03:21:37;;;;;;;9.27;5.82;;;;;;;23.43;59.70;100735.25;5092747;28;20048;-51
2023/05/24 03:24:04;;;;;;;6.63;5.65;;;;;;;23.43;59.50;100735.25;5093768;28;20384;-50
2023/05/24 03:26:32;;;;;;;5.95;5.20;;;;;;;23.43;59.83;100734.41;5092683;28;20056;-51
2023/05/24 03:28:59;;;;;;;7.25;6.45;;;;;;;23.43;59.81;100739.81;5092195;28;20048;-48
2023/05/24 03:31:33;;;;;;;5.57;4.97;;;;;;;23.43;59.79;100745.22;5092695;28;20059;-51
2023/05/24 03:34:01;;;;;;;6.97;5.97;;;;;;;23.43;59.79;100747.91;5092133;28;20063;-50
2023/05/24 03:36:31;;;;;;;6.93;5.88;;;;;;;23.43;59.80;100753.31;5092405;28;20047;-51
2023/05/24 03:38:59;;;;;;;6.70;5.40;;;;;;;23.43;59.85;100750.63;5093539;28;20051;-48
2023/05/24 03:41:27;;;;;;;6.32;5.72;;;;;;;23.43;59.70;100750.63;5092094;28;20052;-58
2023/05/24 03:43:58;;;;;;;7.63;6.00;;;;;;;23.42;59.56;100744.38;5092469;28;20044;-58
2023/05/24 03:46:28;;;;;;;7.13;6.00;;;;;;;23.41;59.92;100745.34;5076863;28;20065;-58
2023/05/24 03:48:56;;;;;;;6.32;5.63;;;;;;;23.43;59.87;100750.63;5096252;28;20060;-58
2023/05/24 03:51:28;;;;;;;6.32;5.55;;;;;;;23.41;59.56;100749.91;5096461;28;20048;-49
2023/05/24 03:53:56;;;;;;;7.38;6.00;;;;;;;23.43;59.63;100747.91;5096058;28;20048;-49
2023/05/24 03:56:25;;;;;;;5.88;5.28;;;;;;;23.41;59.57;100744.50;5096275;28;20058;-50
2023/05/24 03:58:53;;;;;;;6.18;5.05;;;;;;;23.42;59.71;100751.63;5097413;28;20039;-48
2023/05/24 04:01:20;;;;;;;9.05;6.13;;;;;;;23.41;59.83;100753.47;5096045;28;20059;-58
2023/05/24 04:04:00;;;;;;;6.18;5.57;;;;;;;23.42;59.46;100751.63;5096216;28;20048;-58
2023/05/24 04:06:28;;;;;;;5.88;5.28;;;;;;;23.41;59.67;100749.91;5096065;28;20055;-58
2023/05/24 04:08:58;;;;;;;7.20;6.00;;;;;;;23.41;59.43;100760.72;5096074;28;20055;-58
2023/05/24 04:11:27;;;;;;;6.82;5.82;;;;;;;23.41;59.57;100755.31;5096057;28;20067;-58
2023/05/24 04:13:55;;;;;;;7.63;6.32;;;;;;;23.41;59.36;100756.16;5097036;28;20071;-58
2023/05/24 04:16:24;;;;;;;6.15;5.53;;;;;;;23.41;59.44;100755.31;5097013;28;20059;-58
2023/05/24 04:18:56;;;;;;;6.03;5.43;;;;;;;23.41;59.61;100755.31;5097234;28;20495;-58
2023/05/24 04:21:23;;;;;;;5.65;4.90;;;;;;;23.40;59.67;100753.63;5096118;28;20059;-58
2023/05/24 04:23:52;;;;;;;7.32;6.32;;;;;;;23.40;59.48;100754.47;5079565;28;20118;-58
2023/05/24 04:26:20;;;;;;;6.15;5.55;;;;;;;23.41;59.87;100755.31;5096808;28;20044;-58
2023/05/24 04:28:49;;;;;;;9.43;5.68;;;;;;;23.40;59.40;100762.59;5095259;28;20048;-58
2023/05/24 04:31:17;;;;;;;7.25;5.80;;;;;;;23.39;59.52;100758.19;5095562;28;20055;-58
2023/05/24 04:33:46;;;;;;;8.57;5.65;;;;;;;23.41;59.64;100764.25;5095877;28;20056;-58
2023/05/24 04:36:16;;;;;;;6.68;6.03;;;;;;;23.40;59.54;100767.13;5095529;28;20056;-58
2023/05/24 04:38:45;;;;;;;6.35;5.22;;;;;;;23.41;59.53;100763.44;5096674;28;20040;-58
2023/05/24 04:41:12;;;;;;;6.13;5.53;;;;;;;23.40;59.55;100764.44;5096383;28;20043;-58
2023/05/24 04:43:39;;;;;;;6.18;5.57;;;;;;;23.40;59.84;100762.59;5096555;28;20044;-58
2023/05/24 04:46:07;;;;;;;6.95;5.53;;;;;;;23.40;59.95;100769.84;5096453;28;20110;-58
2023/05/24 04:48:35;;;;;;;6.82;5.70;;;;;;;23.40;59.77;100764.44;5096477;28;20043;-58
2023/05/24 04:51:03;;;;;;;6.65;5.97;;;;;;;23.39;59.63;100771.69;5095213;28;20048;-58
2023/05/24 04:53:31;;;;;;;6.53;5.35;;;;;;;23.40;59.53;100775.25;5095266;28;20051;-58
2023/05/24 04:55:59;;;;;;;6.40;5.80;;;;;;;23.41;59.54;100776.94;5096299;28;20392;-58
2023/05/24 04:58:26;;;;;;;6.85;5.32;;;;;;;23.40;59.46;100769.84;5095287;28;20427;-58
2023/05/24 05:00:53;;;;;;;6.15;5.55;;;;;;;23.40;59.45;100764.44;5095789;28;20476;-52
2023/05/24 05:03:20;;;;;;;6.25;5.45;;;;;;;23.41;59.36;100771.53;5095757;28;20412;-50
2023/05/24 05:05:48;;;;;;;6.20;5.60;;;;;;;23.39;59.69;100774.41;5095479;28;20118;-51
2023/05/24 05:08:15;;;;;;;5.72;5.13;;;;;;;23.40;59.76;100772.53;5095553;28;20055;-48
2023/05/24 05:10:43;;;;;;;5.93;5.20;;;;;;;23.39;59.48;100770.84;5095632;28;20051;-58
2023/05/24 05:13:10;;;;;;;6.68;6.07;;;;;;;23.40;59.50;100775.25;5096045;28;20044;-58
2023/05/24 05:15:38;;;;;;;6.97;5.78;;;;;;;23.41;59.68;100779.63;5095849;28;20075;-49
2023/05/24 05:18:08;;;;;;;7.28;6.57;;;;;;;23.40;59.45;100778.78;5095756;28;20384;-51
2023/05/24 05:20:35;;;;;;;7.15;5.13;;;;;;;23.39;59.28;100774.41;5096110;28;20047;-58
2023/05/24 05:23:03;;;;;;;6.95;5.75;;;;;;;23.40;59.41;100777.94;5095683;28;20411;-58
2023/05/24 05:25:30;;;;;;;8.15;5.90;;;;;;;23.41;59.33;100774.22;5095558;28;20044;-58
2023/05/24 05:27:57;;;;;;;6.13;5.43;;;;;;;23.40;59.85;100772.53;5095325;28;20048;-58
2023/05/24 05:30:24;;;;;;;6.80;5.90;;;;;;;23.41;59.73;100772.38;5095376;28;20036;-50
2023/05/24 05:32:52;;;;;;;6.75;6.13;;;;;;;23.41;59.60;100777.78;5095385;28;20055;-49
2023/05/24 05:35:19;;;;;;;6.63;5.90;;;;;;;23.40;59.46;100772.53;5094947;28;20052;-48
2023/05/24 05:37:47;;;;;;;7.47;6.28;;;;;;;23.41;59.74;100771.53;5095427;28;20070;-51
2023/05/24 05:40:14;;;;;;;6.28;5.68;;;;;;;23.41;59.61;100768.81;5095125;28;20479;-58
2023/05/24 05:42:42;;;;;;;6.45;5.75;;;;;;;23.40;59.84;100776.09;5094930;28;20367;-57
2023/05/24 05:45:10;;;;;;;6.47;5.72;;;;;;;23.41;59.57;100771.53;5094943;28;20044;-58
2023/05/24 05:47:37;;;;;;;6.13;5.32;;;;;;;23.40;59.62;100770.69;5095107;28;20460;-57
2023/05/24 05:50:05;;;;;;;6.10;5.30;;;;;;;23.41;59.63;100766.97;5095554;28;20048;-57
2023/05/24 05:52:33;;;;;;;7.60;5.75;;;;;;;23.40;59.55;100776.09;5095043;28;20052;-58
2023/05/24 05:55:00;;;;;;;6.82;5.55;;;;;;;23.40;59.57;100759.88;5095129;28;20055;-58
2023/05/24 05:57:27;;;;;;;6.97;6.13;;;;;;;23.41;59.54;100766.13;5094929;28;20055;-58
2023/05/24 05:59:55;;;;;;;7.63;6.15;;;;;;;23.42;59.60;100770.53;5094974;28;20070;-57
2023/05/24 06:02:22;;;;;;;6.93;6.20;;;;;;;23.42;59.55;100770.53;5095004;28;20048;-58
2023/05/24 06:04:50;;;;;;;6.38;5.63;;;;;;;23.42;59.52;100778.66;5094965;28;20499;-58
2023/05/24 06:07:17;;;;;;;6.25;5.65;;;;;;;23.42;59.92;100776.78;5095002;28;20484;-58
2023/05/24 06:09:45;;;;;;;7.43;6.03;;;;;;;23.43;59.64;100774.94;5093992;28;20043;-50
2023/05/24 06:12:14;;;;;;;6.18;5.57;;;;;;;23.43;59.79;100780.34;5094613;28;20055;-52
2023/05/24 06:14:41;;;;;;;6.63;5.90;;;;;;;23.44;59.53;100776.63;5094731;28;20044;-52
2023/05/24 06:17:08;;;;;;;5.78;5.18;;;;;;;23.43;59.47;100781.19;5094604;28;20044;-51
2023/05/24 06:19:36;;;;;;;6.50;5.03;;;;;;;23.44;59.48;100779.31;5094596;28;20055;-49
2023/05/24 06:22:03;;;;;;;6.65;5.55;;;;;;;23.44;59.50;100780.16;5094562;28;20040;-58
2023/05/24 06:24:33;;;;;;;8.00;5.20;;;;;;;23.45;59.60;100783.72;5094548;28;20047;-58
2023/05/24 06:27:01;;;;;;;5.90;5.30;;;;;;;23.45;59.32;100783.72;5094331;28;20471;-58
2023/05/24 06:29:31;;;;;;;6.35;5.65;;;;;;;23.47;59.53;100786.28;5094234;28;20048;-58
2023/05/24 06:31:59;;;;;;;6.60;5.90;;;;;;;23.47;59.42;100794.38;5094178;28;20040;-58
2023/05/24 06:34:27;;;;;;;5.60;5.10;;;;;;;23.47;59.25;100783.56;5094264;28;20067;-58
2023/05/24 06:36:54;;;;;;;6.10;5.50;;;;;;;23.47;59.61;100789.81;5094416;28;20048;-58
2023/05/24 06:39:23;;;;;;;5.95;5.40;;;;;;;23.47;59.28;100787.13;5094334;28;20480;-58
2023/05/24 06:41:52;;;;;;;6.00;5.40;;;;;;;23.47;59.59;100787.13;5094352;28;20040;-58
2023/05/24 06:44:30;;;;;;;6.47;5.70;;;;;;;23.48;59.64;100783.41;5077106;28;20184;-58
2023/05/24 06:47:01;;;;;;;6.57;5.28;;;;;;;23.48;59.46;100786.09;5094282;28;20040;-58
2023/05/24 06:49:28;;;;;;;6.03;5.43;;;;;;;23.48;59.31;100783.41;5094473;28;20048;-58
2023/05/24 06:51:56;;;;;;;7.10;6.03;;;;;;;23.48;59.18;100791.50;5094114;28;20051;-52
2023/05/24 06:54:24;;;;;;;5.53;5.03;;;;;;;23.48;59.49;100790.66;5094162;28;20051;-52
2023/05/24 06:56:51;;;;;;;5.78;5.15;;;;;;;23.48;59.25;100794.19;5093714;28;20056;-51
2023/05/24 06:59:19;;;;;;;6.25;5.32;;;;;;;23.48;59.55;100794.19;5092714;28;20048;-52
2023/05/24 07:01:48;;;;;;;7.80;5.65;;;;;;;23.50;59.73;100797.63;5094023;28;20058;-58
2023/05/24 07:04:15;;;;;;;5.35;4.82;;;;;;;23.51;59.86;100801.16;5093560;28;20066;-59
2023/05/24 07:06:44;;;;;;;6.53;5.60;;;;;;;23.51;59.83;100796.59;5093382;28;20507;-58
2023/05/24 07:09:12;;;;;;;6.22;5.63;;;;;;;23.52;59.86;100806.38;5093624;28;20044;-58
2023/05/24 07:11:39;;;;;;;5.88;5.28;;;;;;;23.52;60.11;100795.56;5093883;28;20047;-49
2023/05/24 07:14:07;;;;;;;7.05;5.78;;;;;;;23.54;60.05;100800.84;5094096;28;20044;-51
2023/05/24 07:16:34;;;;;;;5.85;5.28;;;;;;;23.54;60.02;100796.28;5076243;28;20052;-51
2023/05/24 07:19:02;;;;;;;6.70;4.97;;;;;;;23.55;60.26;100800.66;5093543;28;20044;-50
2023/05/24 07:21:31;;;;;;;7.03;6.03;;;;;;;23.57;60.15;100805.91;5093000;28;20055;-58
2023/05/24 07:23:58;;;;;;;6.13;5.63;;;;;;;23.58;59.94;100808.47;5093110;28;20040;-59
2023/05/24 07:26:25;;;;;;;6.18;5.30;;;;;;;23.60;59.78;100800.19;5093435;28;20048;-58
2023/05/24 07:28:53;;;;;;;6.80;5.13;;;;;;;23.61;60.03;100805.41;5093690;28;20507;-58
2023/05/24 07:31:21;;;;;;;7.65;5.50;;;;;;;23.62;59.99;100804.44;5093457;28;20512;-51
2023/05/24 07:33:48;;;;;;;6.28;5.68;;;;;;;23.64;58.95;100804.25;5093574;28;20043;-50
2023/05/24 07:36:16;;;;;;;7.15;6.18;;;;;;;23.64;59.16;100802.41;5092263;28;20519;-49
2023/05/24 07:38:43;;;;;;;8.10;5.72;;;;;;;23.69;59.36;100801.94;5093628;28;20381;-52
2023/05/24 07:41:12;;;;;;;7.40;5.90;;;;;;;23.73;59.10;100805.19;5093668;28;20055;-50
2023/05/24 07:43:40;;;;;;;7.53;5.65;;;;;;;23.77;58.82;100806.56;5093731;28;20036;-50
2023/05/24 07:46:09;;;;;;;7.25;5.80;;;;;;;23.79;58.86;100812.66;5092951;28;20044;-49
2023/05/24 07:48:36;;;;;;;6.43;5.80;;;;;;;23.81;58.61;100800.66;5093007;28;20052;-58
2023/05/24 07:51:04;;;;;;;6.43;5.82;;;;;;;23.83;58.39;100805.91;5092992;28;20044;-52
2023/05/24 07:53:33;;;;;;;6.32;5.72;;;;;;;23.84;58.19;100807.59;5093157;28;20392;-58
2023/05/24 07:56:00;;;;;;;7.70;5.90;;;;;;;23.82;58.07;100805.06;5092351;28;20506;-58
2023/05/24 07:58:28;;;;;;;6.78;6.05;;;;;;;23.84;57.65;100802.19;5092686;28;20049;-59
2023/05/24 08:00:55;;;;;;;7.97;6.05;;;;;;;23.84;57.86;100800.34;5092815;28;20492;-58
2023/05/24 08:03:24;;;;;;;6.80;6.00;;;;;;;23.83;57.54;100798.66;5091880;28;20040;-58
2023/05/24 08:05:52;;;;;;;7.68;5.60;;;;;;;23.84;57.54;100799.50;5092710;28;20048;-58
2023/05/24 08:08:19;;;;;;;7.40;5.97;;;;;;;23.84;57.86;100799.50;5092479;28;20048;-58
2023/05/24 08:10:47;;;;;;;6.88;5.70;;;;;;;23.84;57.45;100788.69;5092644;28;20047;-58
2023/05/24 08:13:14;;;;;;;7.05;5.60;;;;;;;23.85;57.53;100795.78;5092542;28;20514;-58
2023/05/24 08:15:41;;;;;;;7.00;6.30;;;;;;;23.85;57.82;100796.63;5092590;28;20051;-58
2023/05/24 08:18:09;;;;;;;8.32;5.75;;;;;;;23.85;57.81;100803.88;5092541;28;20048;-58
2023/05/24 08:20:37;;;;;;;6.55;5.70;;;;;;;23.86;57.76;100792.94;5092577;28;20052;-51
2023/05/24 08:23:05;;;;;;;6.82;5.50;;;;;;;23.86;57.51;100782.13;5092380;28;20044;-50
2023/05/24 08:25:32;;;;;;;6.82;5.43;;;;;;;23.87;57.41;100782.97;5092495;28;20044;-49
2023/05/24 08:27:59;;;;;;;7.03;5.93;;;;;;;23.87;57.41;100788.38;5092444;28;20051;-51
2023/05/24 08:30:27;;;;;;;7.03;6.32;;;;;;;23.89;57.77;100786.31;5092451;28;20049;-49
2023/05/24 08:32:56;;;;;;;6.35;5.53;;;;;;;23.89;57.69;100780.91;5094247;28;20040;-50
2023/05/24 08:35:24;;;;;;;6.60;5.45;;;;;;;23.89;57.49;100792.56;5094829;28;20063;-50
2023/05/24 08:37:51;;;;;;;6.32;5.63;;;;;;;23.89;57.74;100792.56;5095913;28;20415;-48
2023/05/24 08:40:19;;;;;;;8.32;6.15;;;;;;;23.90;58.03;100794.28;5096052;28;20044;-49
2023/05/24 08:42:48;;;;;;;6.75;6.05;;;;;;;23.90;58.07;100785.31;5095951;28;20067;-49
2023/05/24 08:45:17;;;;;;;7.90;5.85;;;;;;;23.91;57.79;100787.03;5095878;28;20055;-52
2023/05/24 08:47:46;;;;;;;8.52;6.32;;;;;;;23.91;57.91;100787.03;5095834;28;20484;-50
2023/05/24 08:50:14;;;;;;;6.45;5.65;;;;;;;23.91;57.94;100784.31;5095636;28;20048;-51
2023/05/24 08:52:44;;;;;;;6.65;5.78;;;;;;;23.91;58.01;100785.16;5095593;28;20040;-50
2023/05/24 08:55:12;;;;;;;6.20;5.32;;;;;;;23.91;57.76;100782.47;5095672;28;20040;-47
2023/05/24 08:57:40;;;;;;;7.68;5.45;;;;;;;23.92;57.89;100791.41;5095674;28;20048;-49
2023/05/24 09:00:12;;;;;;;5.95;5.18;;;;;;;23.93;58.13;100790.41;5095599;28;20380;-58
2023/05/24 09:02:42;;;;;;;7.03;5.55;;;;;;;23.92;57.75;100784.16;5095558;28;20051;-58
2023/05/24 09:05:15;;;;;;;6.43;5.20;;;;;;;23.93;57.78;100785.00;5095474;28;20048;-58
2023/05/24 09:07:44;;;;;;;7.50;6.00;;;;;;;23.92;57.96;100778.75;5095458;28;20482;-58
2023/05/24 09:10:12;;;;;;;6.25;5.38;;;;;;;23.93;57.92;100779.59;5095496;28;20040;-49
2023/05/24 09:12:44;;;;;;;6.78;5.75;;;;;;;23.93;57.75;100777.72;5095220;28;20048;-51
2023/05/24 09:15:12;;;;;;;6.38;5.60;;;;;;;23.93;58.04;100775.03;5095390;28;20052;-48
2023/05/24 09:17:39;;;;;;;6.53;5.93;;;;;;;23.93;58.20;100776.88;5095150;28;20044;-50
2023/05/24 09:20:09;;;;;;;6.18;5.30;;;;;;;23.93;57.77;100777.72;5095099;28;20039;-51
2023/05/24 09:22:40;;;;;;;6.30;5.70;;;;;;;23.95;57.86;100774.03;5095053;28;20048;-51
2023/05/24 09:25:11;;;;;;;6.72;5.35;;;;;;;23.94;57.80;100775.88;5095546;28;20055;-49
2023/05/24 09:27:39;;;;;;;6.07;5.38;;;;;;;23.96;57.85;100770.31;5095627;28;20051;-47
2023/05/24 09:30:11;;;;;;;6.03;5.43;;;;;;;23.97;58.08;100769.28;5095608;28;20079;-58
2023/05/24 09:32:39;;;;;;;6.97;6.28;;;;;;;23.99;57.83;100770.00;5095390;28;20389;-58
2023/05/24 09:35:08;;;;;;;6.13;5.50;;;;;;;23.99;57.53;100773.53;5095005;28;20056;-58
2023/05/24 09:37:40;;;;;;;7.80;6.40;;;;;;;23.99;57.28;100762.72;5095732;28;20052;-58
2023/05/24 09:40:18;;;;;;;7.20;6.03;;;;;;;23.99;57.23;100767.28;5095305;28;20044;-58
2023/05/24 09:42:45;;;;;;;6.72;6.00;;;;;;;23.98;57.14;100763.72;5095783;28;20048;-58
2023/05/24 09:45:13;;;;;;;6.93;6.07;;;;;;;23.99;56.92;100773.53;5095306;28;20044;-51
2023/05/24 09:47:42;;;;;;;6.97;5.97;;;;;;;23.98;56.81;100768.28;5095390;28;20384;-48
2023/05/24 09:50:18;;;;;;;11.15;5.95;;;;;;;23.99;57.04;100761.88;5095058;28;20123;-58
2023/05/24 09:52:46;;;;;;;6.78;5.88;;;;;;;23.98;57.02;100763.72;5093863;28;20051;-58
2023/05/24 09:55:15;;;;;;;8.88;6.72;;;;;;;23.99;57.00;100756.47;5094896;28;20036;-58
2023/05/24 09:57:44;;;;;;;6.90;6.20;;;;;;;23.99;56.82;100760.00;5094794;28;20399;-58
2023/05/24 10:00:15;;;;;;;7.03;5.78;;;;;;;24.01;56.93;100752.56;5094032;28;20055;-61
2023/05/24 10:02:43;;;;;;;7.60;6.72;;;;;;;24.02;56.39;100753.41;5094659;28;20048;-60
2023/05/24 10:05:20;;;;;;;6.95;6.22;;;;;;;24.02;56.28;100754.25;5093985;28;20048;-61
2023/05/24 10:07:48;;;;;;;6.78;5.85;;;;;;;24.01;56.40;100754.44;5094191;28;20044;-60
2023/05/24 10:10:15;;;;;;;7.43;6.72;;;;;;;24.03;56.28;100758.69;5094092;28;20048;-50
2023/05/24 10:12:45;;;;;;;7.20;6.50;;;;;;;24.03;56.32;100749.72;5094324;28;20044;-52
2023/05/24 10:15:13;;;;;;;7.43;6.55;;;;;;;24.03;56.25;100745.16;5094404;28;20048;-59
2023/05/24 10:17:40;;;;;;;7.80;6.97;;;;;;;24.02;56.19;100743.44;5093603;28;20048;-59
2023/05/24 10:20:11;;;;;;;7.43;6.53;;;;;;;24.04;56.25;100740.59;5094475;28;20036;-59
2023/05/24 10:22:46;;;;;;;7.88;7.15;;;;;;;24.02;56.45;100738.03;5094634;28;20050;-59
2023/05/24 10:25:19;;;;;;;8.20;7.15;;;;;;;24.03;56.41;100742.44;5093768;28;20349;-59
2023/05/24 10:27:49;;;;;;;7.90;7.10;;;;;;;24.04;56.82;100740.59;5093673;28;20516;-59
2023/05/24 10:30:26;;;;;;;9.77;7.15;;;;;;;24.04;56.51;100740.59;5094123;28;20044;-59
2023/05/24 10:32:55;;;;;;;9.05;6.70;;;;;;;24.03;56.67;100739.75;5093786;28;20048;-59
2023/05/24 10:35:24;;;;;;;7.43;6.72;;;;;;;24.04;56.76;100733.31;5093389;28;20044;-59
2023/05/24 10:37:53;;;;;;;8.02;7.03;;;;;;;24.05;56.87;100736.88;5093762;28;20039;-60
2023/05/24 10:40:24;;;;;;;8.23;7.40;;;;;;;24.05;56.90;100734.16;5093866;28;20059;-52
2023/05/24 10:42:55;;;;;;;7.35;6.65;;;;;;;24.05;56.80;100729.59;5094057;28;20048;-52
2023/05/24 10:45:28;;;;;;;7.50;6.80;;;;;;;24.06;57.23;100731.28;5093834;28;20036;-53
2023/05/24 10:47:55;;;;;;;8.07;7.30;;;;;;;24.06;57.26;100723.16;5093512;28;20059;-58
2023/05/24 10:50:23;;;;;;;7.95;7.22;;;;;;;24.06;57.28;100730.44;5093837;28;20074;-52
2023/05/24 10:52:50;;;;;;;8.10;7.30;;;;;;;24.06;57.09;100717.75;5075899;28;20400;-52
2023/05/24 10:55:18;;;;;;;8.73;7.82;;;;;;;24.05;56.99;100716.06;5093100;28;20051;-52
2023/05/24 10:57:46;;;;;;;8.52;7.72;;;;;;;24.05;57.31;100720.63;5093789;28;20043;-53
2023/05/24 11:00:19;;;;;;;8.32;7.53;;;;;;;24.06;56.94;100711.50;5091956;28;20070;-59
2023/05/24 11:03:08;;;;;;;8.60;7.05;;;;;;;24.05;57.20;100710.66;5092780;28;20055;-59
2023/05/24 11:05:45;;;;;;;8.93;8.02;;;;;;;24.05;57.29;100705.25;5093322;28;20374;-59
2023/05/24 11:08:13;;;;;;;9.10;8.20;;;;;;;24.06;57.28;100704.22;5093289;28;20484;-59
2023/05/24 11:10:40;;;;;;;7.95;7.15;;;;;;;24.06;57.34;100689.88;5093029;28;20524;-52
2023/05/24 11:13:11;;;;;;;8.20;7.43;;;;;;;24.04;57.63;100698.16;5093098;28;20048;-52
2023/05/24 11:15:38;;;;;;;8.80;8.00;;;;;;;24.05;57.41;100689.03;5093484;28;20425;-53
2023/05/24 11:18:11;;;;;;;9.27;8.38;;;;;;;24.07;57.46;100683.47;5091897;28;20052;-52
2023/05/24 11:20:41;;;;;;;9.15;8.25;;;;;;;24.07;57.27;100675.34;5093363;28;20055;-52
2023/05/24 11:23:10;;;;;;;8.63;7.78;;;;;;;24.09;56.67;100667.91;5092892;28;20407;-49
2023/05/24 11:25:37;;;;;;;9.95;8.95;;;;;;;24.11;56.95;100672.16;5093700;28;20095;-50
2023/05/24 11:28:10;;;;;;;9.40;8.45;;;;;;;24.15;56.95;100672.66;5093428;28;20044;-52
2023/05/24 11:30:41;;;;;;;9.70;8.80;;;;;;;24.16;56.83;100660.81;5093322;28;20515;-52
2023/05/24 11:33:16;;;;;;;9.50;8.60;;;;;;;24.16;56.90;100663.53;5093002;28;20055;-59